Terminal Aerodrome Forecast
Issued by NWS Omaha/Valley, NE

Home | Current Version | Previous Version | Text Only | Print | Product List | Glossary On
Versions: 1 2 3 4 5 6 7 8 9 10 11 12 13 14 15 16 17
000
FTUS43 KOAX 101120
TAFOMA
TAF
KOMA 101120Z 1012/1112 13005KT P6SM VCSH SCT025 OVC040
      TEMPO 1012/1015 3SM -SN BR OVC025
     FM101500 14008KT P6SM VCSH OVC035
     FM101800 15014KT P6SM OVC035
     FM110200 15010KT P6SM OVC040=

USA.gov is the U.S. government's official web portal to all federal, state and local government web resources and services.